Airfield :







YOU CAN JOIN US ON...

 
LOGIN :

Register | Disclaimer

   EN    FR    IT 

 









Legend :    VFR   Marginal VFR   IFR   Intensive IFR   Very Intensive IFR
Visi :
Ceiling :
>= 8 km
>= 3000ft
5 to 8 km
1000 to 3000 ft
1500m to 5 km
500 to 1000 ft
800 to 1500m
200 to 500 ft
< 800m
< 200 ft
Symbols :   Thunderstorms  Fog  Heavy snow  Heavy precipitations  Wind > 20 kt






- Airport Elevation : 930 ft


KEFK - Newport State

CURRENT METAR :
  • 221235Z AUTO 21005KT 10SM BKN041 OVC060 12/11 A2970 RMK AO2 T01220110

EXPIRED METARs :
  • 221215Z AUTO 20007KT 10SM -DZ SCT013 OVC041 12/11 A2970 RMK AO2 T01210108
  • 221155Z AUTO 20007KT 10SM DZ BKN013 OVC036 12/11 A2969 RMK AO2 T01200107 10122 20113
  • 221135Z AUTO 20006KT 10SM BKN013 BKN036 OVC090 12/10 A2967 RMK AO2 T01160104
  • 221115Z AUTO 19005KT 10SM OVC013 12/10 A2967 RMK AO2 T01160103
  • 221055Z AUTO 00000KT 10SM BKN013 OVC055 12/10 A2967 RMK AO2 T01150102
  • 221035Z AUTO 00000KT 10SM SCT008 OVC013 11/10 A2966 RMK AO2 T01140100
  • 221015Z AUTO 00000KT 10SM BKN015 BKN026 OVC095 12/10 A2967 RMK AO2 T01150101
  • 220955Z AUTO 19004KT 7SM RA SCT017 BKN075 OVC110 12/10 A2966 RMK AO2 T01150101

TAF KEFK
Valid from the 22 at 12:00 until the 23 at 12:00 UTC


221135Z 2212/2312 19006KT P6SM VCSH BKN013
FM221400 24008KT P6SM OVC013
FM221900 29005KT P6SM OVC022
FM222200 VRB03KT P6SM OVC035
KZBW FIR / North America



MET'MAP, your aeronautical weather chart ! - Copyright ORBIFLY December 2007 - Disclaimer

ORBIFLY MET'MAP TEAM :

Programming & Development : Alexandra Zaïnal
Concept & original design : Baudouin d'Aumeries
Assistance for programming : Marc-Olivier Méhu
Technical & hardware support : Manuel Goepfert

Contact : metmap@orbifly.com




SOURCES & CREDITS :

   NOAA